createdAt,value
2023-05-03T00:00:47.934Z,12.46
2023-05-03T00:01:48.138Z,12.45
2023-05-03T00:02:48.348Z,12.43
2023-05-03T00:03:48.436Z,12.40
2023-05-03T00:04:48.691Z,12.37
2023-05-03T00:05:48.883Z,12.31
2023-05-03T00:06:49.124Z,12.29
2023-05-03T00:07:49.126Z,12.24
2023-05-03T00:08:49.302Z,12.21
2023-05-03T00:09:49.460Z,12.20
2023-05-03T00:10:49.654Z,12.15
2023-05-03T00:11:49.801Z,12.12
2023-05-03T00:12:49.968Z,12.07
2023-05-03T00:13:50.147Z,12.03
2023-05-03T00:14:50.319Z,12.00
2023-05-03T00:15:50.497Z,11.97
2023-05-03T00:16:50.707Z,11.91
2023-05-03T00:17:50.879Z,11.88
2023-05-03T00:18:51.026Z,11.87
2023-05-03T00:19:51.219Z,11.83
2023-05-03T00:20:51.398Z,11.81
2023-05-03T00:21:51.581Z,11.73
2023-05-03T00:22:51.751Z,11.70
2023-05-03T00:23:51.925Z,11.70
2023-05-03T00:24:52.093Z,11.65
2023-05-03T00:25:52.313Z,11.60
2023-05-03T00:26:52.435Z,11.54
2023-05-03T00:27:52.598Z,11.51
2023-05-03T00:28:52.781Z,11.48
2023-05-03T00:29:52.952Z,11.47
2023-05-03T00:30:53.178Z,11.45
2023-05-03T00:31:53.305Z,11.43
2023-05-03T00:32:53.514Z,11.40
2023-05-03T00:33:53.622Z,11.37
2023-05-03T00:34:53.788Z,11.36
2023-05-03T00:35:53.970Z,11.32
2023-05-03T00:36:54.157Z,11.26
2023-05-03T00:37:54.315Z,11.25
2023-05-03T00:38:54.487Z,11.22
2023-05-03T00:39:54.658Z,11.19
2023-05-03T00:40:54.852Z,11.22
2023-05-03T00:41:55.020Z,11.17
2023-05-03T00:42:55.194Z,11.17
2023-05-03T00:43:55.351Z,11.15
2023-05-03T00:44:56.084Z,11.11
2023-05-03T00:46:02.010Z,11.10
2023-05-03T00:46:56.972Z,11.10
2023-05-03T00:47:56.156Z,11.07
2023-05-03T00:48:56.240Z,11.05
2023-05-03T00:49:56.406Z,11.04
2023-05-03T00:50:56.671Z,11.00
2023-05-03T00:51:56.759Z,10.99
2023-05-03T00:52:56.938Z,10.97
2023-05-03T00:53:57.127Z,10.94
2023-05-03T00:54:57.271Z,10.96
2023-05-03T00:55:57.458Z,10.92
2023-05-03T00:56:57.695Z,10.90
2023-05-03T00:57:57.809Z,10.90
2023-05-03T00:58:58.069Z,10.87
2023-05-03T00:59:58.173Z,10.84
2023-05-03T01:00:58.312Z,10.82
2023-05-03T01:01:58.625Z,10.81
2023-05-03T01:02:58.783Z,10.78
2023-05-03T01:03:59.017Z,10.78
2023-05-03T01:04:58.991Z,10.75
2023-05-03T01:05:59.214Z,10.72
2023-05-03T01:06:59.339Z,10.71
2023-05-03T01:07:59.527Z,10.68
2023-05-03T01:08:59.697Z,10.64
2023-05-03T01:09:59.999Z,10.64
2023-05-03T01:11:00.025Z,10.64
2023-05-03T01:12:00.185Z,10.63
2023-05-03T01:13:00.366Z,10.60
2023-05-03T01:14:00.554Z,10.60
2023-05-03T01:15:00.728Z,10.56
2023-05-03T01:16:00.958Z,10.54
2023-05-03T01:17:01.092Z,10.53
2023-05-03T01:18:01.335Z,10.51
2023-05-03T01:19:01.465Z,10.51
2023-05-03T01:20:01.794Z,10.48
2023-05-03T01:21:01.814Z,10.44
2023-05-03T01:22:01.995Z,10.41
2023-05-03T01:23:02.189Z,10.42
2023-05-03T01:24:02.344Z,10.38
2023-05-03T01:25:02.522Z,10.35
2023-05-03T01:26:02.702Z,10.33
2023-05-03T01:27:02.882Z,10.30
2023-05-03T01:28:03.108Z,10.26
2023-05-03T01:29:03.249Z,10.25
2023-05-03T01:30:03.635Z,10.20
2023-05-03T01:31:03.576Z,10.19
2023-05-03T01:32:03.779Z,10.17
2023-05-03T01:33:03.960Z,10.12
2023-05-03T01:34:04.112Z,10.13
2023-05-03T01:35:04.268Z,10.12
2023-05-03T01:36:04.476Z,10.12
2023-05-03T01:37:04.608Z,10.09
2023-05-03T01:38:04.783Z,10.05
2023-05-03T01:39:05.002Z,10.04
2023-05-03T01:40:05.746Z,10.02
2023-05-03T01:41:05.329Z,10.02
2023-05-03T01:42:05.514Z,9.99
2023-05-03T01:43:05.750Z,9.97
2023-05-03T01:44:05.851Z,9.94
2023-05-03T01:45:06.003Z,9.94
2023-05-03T01:46:06.225Z,9.94
2023-05-03T01:47:06.345Z,9.92
2023-05-03T01:48:06.624Z,9.87
2023-05-03T01:49:06.783Z,9.86
2023-05-03T01:50:06.907Z,9.83
2023-05-03T01:51:07.117Z,9.79
2023-05-03T01:52:07.282Z,9.80
2023-05-03T01:53:07.436Z,9.79
2023-05-03T01:54:07.598Z,9.77
2023-05-03T01:55:07.797Z,9.74
2023-05-03T01:56:07.956Z,9.76
2023-05-03T01:57:08.135Z,9.72
2023-05-03T01:58:08.317Z,9.69
2023-05-03T01:59:08.473Z,9.68
2023-05-03T02:00:08.662Z,9.66
2023-05-03T02:01:08.859Z,9.65
2023-05-03T02:02:09.068Z,9.66
2023-05-03T02:03:09.206Z,9.64
2023-05-03T02:04:09.464Z,9.61
2023-05-03T02:05:09.489Z,9.59
2023-05-03T02:06:09.693Z,9.59
2023-05-03T02:07:09.936Z,9.58
2023-05-03T02:08:10.032Z,9.55
2023-05-03T02:09:10.191Z,9.54
2023-05-03T02:10:10.453Z,9.54
2023-05-03T02:11:10.533Z,9.50
2023-05-03T02:12:10.717Z,9.50
2023-05-03T02:13:10.963Z,9.47
2023-05-03T02:14:11.052Z,9.46
2023-05-03T02:15:11.231Z,9.47
2023-05-03T02:16:11.654Z,9.43
2023-05-03T02:17:11.565Z,9.43
2023-05-03T02:18:11.806Z,9.41
2023-05-03T02:19:11.902Z,9.40
2023-05-03T02:20:12.112Z,9.39
2023-05-03T02:21:12.276Z,9.39
2023-05-03T02:22:12.452Z,9.37
2023-05-03T02:23:12.650Z,9.36
2023-05-03T02:24:12.805Z,9.36
2023-05-03T02:25:12.981Z,9.32
2023-05-03T02:26:13.229Z,9.31
2023-05-03T02:27:13.322Z,9.31
2023-05-03T02:28:13.489Z,9.28
2023-05-03T02:29:13.727Z,9.28
2023-05-03T02:30:13.819Z,9.26
2023-05-03T02:31:14.023Z,9.22
2023-05-03T02:32:14.194Z,9.22
2023-05-03T02:33:14.349Z,9.19
2023-05-03T02:34:14.510Z,9.18
2023-05-03T02:35:14.760Z,9.18
2023-05-03T02:36:14.871Z,9.16
2023-05-03T02:37:15.029Z,9.16
2023-05-03T02:38:15.278Z,9.14
2023-05-03T02:39:15.371Z,9.13
2023-05-03T02:40:15.596Z,9.10
2023-05-03T02:41:15.749Z,9.08
2023-05-03T02:42:15.906Z,9.08
2023-05-03T02:43:16.068Z,9.06
2023-05-03T02:44:16.242Z,9.04
2023-05-03T02:45:16.437Z,9.02
2023-05-03T02:46:16.605Z,8.99
2023-05-03T02:47:16.757Z,8.99
2023-05-03T02:48:16.924Z,8.97
2023-05-03T02:49:17.090Z,8.94
2023-05-03T02:50:17.277Z,8.95
2023-05-03T02:51:17.458Z,8.94
2023-05-03T02:52:17.624Z,8.92
2023-05-03T02:53:17.800Z,8.94
2023-05-03T02:54:17.987Z,8.94
2023-05-03T02:55:18.173Z,8.92
2023-05-03T02:56:18.361Z,8.92
2023-05-03T02:57:18.512Z,8.91
2023-05-03T02:58:18.680Z,8.88
2023-05-03T02:59:18.842Z,8.88
2023-05-03T03:00:19.107Z,8.88
2023-05-03T03:01:19.209Z,8.85
2023-05-03T03:02:19.347Z,8.85
2023-05-03T03:03:19.700Z,8.85
2023-05-03T03:04:19.696Z,8.84
2023-05-03T03:05:19.872Z,8.82
2023-05-03T03:06:20.190Z,8.81
2023-05-03T03:07:20.213Z,8.81
2023-05-03T03:08:20.411Z,8.79
2023-05-03T03:09:20.630Z,8.79
2023-05-03T03:10:20.765Z,8.76
2023-05-03T03:11:20.884Z,8.76
2023-05-03T03:12:21.150Z,8.74
2023-05-03T03:13:21.253Z,8.73
2023-05-03T03:14:21.445Z,8.73
2023-05-03T03:15:21.614Z,8.71
2023-05-03T03:16:21.845Z,8.73
2023-05-03T03:18:22.150Z,8.73
2023-05-03T03:19:22.300Z,8.71
2023-05-03T03:20:22.517Z,8.71
2023-05-03T03:21:22.662Z,8.71
2023-05-03T03:22:22.810Z,8.71
2023-05-03T03:23:22.973Z,8.67
2023-05-03T03:24:23.141Z,8.66
2023-05-03T03:25:23.304Z,8.67
2023-05-03T03:26:23.543Z,8.67
2023-05-03T03:27:23.667Z,8.67
2023-05-03T03:28:23.840Z,8.66
2023-05-03T03:29:23.990Z,8.66
2023-05-03T03:30:24.198Z,8.66
2023-05-03T03:31:24.412Z,8.66
2023-05-03T03:32:24.524Z,8.63
2023-05-03T03:33:24.830Z,8.64
2023-05-03T03:34:24.854Z,8.64
2023-05-03T03:35:25.160Z,8.64
2023-05-03T03:36:25.238Z,8.63
2023-05-03T03:37:25.416Z,8.63
2023-05-03T03:38:25.600Z,8.64
2023-05-03T03:39:25.774Z,8.60
2023-05-03T03:40:25.921Z,8.61
2023-05-03T03:41:26.084Z,8.60
2023-05-03T03:42:26.248Z,8.60
2023-05-03T03:43:26.435Z,8.60
2023-05-03T03:44:26.614Z,8.60
2023-05-03T03:45:26.750Z,8.61
2023-05-03T03:46:27.006Z,8.61
2023-05-03T03:47:27.110Z,8.61
2023-05-03T03:48:27.284Z,8.63
2023-05-03T03:49:27.436Z,8.61
2023-05-03T03:50:27.622Z,8.64
2023-05-03T03:51:27.855Z,8.63
2023-05-03T03:52:27.958Z,8.66
2023-05-03T03:53:28.115Z,8.67
2023-05-03T03:54:28.439Z,8.69
2023-05-03T03:55:28.467Z,8.70
2023-05-03T03:56:28.649Z,8.73
2023-05-03T03:57:28.870Z,8.74
2023-05-03T03:58:28.978Z,8.78
2023-05-03T03:59:29.158Z,8.81
2023-05-03T04:00:29.391Z,8.81
2023-05-03T04:01:29.477Z,8.85
2023-05-03T04:02:29.713Z,8.88
2023-05-03T04:03:29.929Z,8.91
2023-05-03T04:04:30.064Z,8.92
2023-05-03T04:05:30.165Z,8.97
2023-05-03T04:06:30.345Z,9.00
2023-05-03T04:07:30.483Z,9.04
2023-05-03T04:08:30.717Z,9.11
2023-05-03T04:09:30.877Z,9.11
2023-05-03T04:10:31.029Z,9.18
2023-05-03T04:11:31.242Z,9.23
2023-05-03T04:12:31.387Z,9.29
2023-05-03T04:13:31.532Z,9.32
2023-05-03T04:14:31.714Z,9.36
2023-05-03T04:15:31.863Z,9.41
2023-05-03T04:16:32.178Z,9.44
2023-05-03T04:17:32.227Z,9.50
2023-05-03T04:18:32.385Z,9.56
2023-05-03T04:19:32.609Z,9.62
2023-05-03T04:20:32.752Z,9.69
2023-05-03T04:21:32.985Z,9.76
2023-05-03T04:22:33.127Z,9.82
2023-05-03T04:23:33.290Z,9.87
2023-05-03T04:24:33.485Z,9.92
2023-05-03T04:25:33.624Z,9.98
2023-05-03T04:26:33.803Z,10.02
2023-05-03T04:27:34.025Z,10.07
2023-05-03T04:28:34.180Z,10.13
2023-05-03T04:29:34.366Z,10.17
2023-05-03T04:30:34.588Z,10.20
2023-05-03T04:31:34.718Z,10.25
2023-05-03T04:32:34.919Z,10.30
2023-05-03T04:33:35.058Z,10.34
2023-05-03T04:34:35.265Z,10.37
2023-05-03T04:35:35.424Z,10.40
2023-05-03T04:36:35.603Z,10.44
2023-05-03T04:37:35.800Z,10.49
2023-05-03T04:38:35.955Z,10.59
2023-05-03T04:39:36.116Z,10.67
2023-05-03T04:40:36.323Z,10.76
2023-05-03T04:41:36.466Z,10.87
2023-05-03T04:42:36.674Z,10.96
2023-05-03T04:43:36.843Z,11.02
2023-05-03T04:44:37.063Z,11.10
2023-05-03T04:45:37.191Z,11.11
2023-05-03T04:46:37.443Z,11.17
2023-05-03T04:47:37.581Z,11.23
2023-05-03T04:48:37.720Z,11.27
2023-05-03T04:49:37.887Z,11.32
2023-05-03T04:50:38.036Z,11.37
2023-05-03T04:51:38.237Z,11.41
2023-05-03T04:52:38.413Z,11.45
2023-05-03T04:53:38.564Z,11.54
2023-05-03T04:54:38.773Z,11.66
2023-05-03T04:55:38.966Z,11.77
2023-05-03T04:56:39.139Z,11.88
2023-05-03T04:57:39.300Z,12.02
2023-05-03T04:58:39.444Z,12.09
2023-05-03T04:59:39.613Z,12.18
2023-05-03T05:00:39.781Z,12.25
2023-05-03T05:01:39.968Z,12.37
2023-05-03T05:02:40.182Z,12.47
2023-05-03T05:03:40.420Z,12.55
2023-05-03T05:04:40.478Z,12.65
2023-05-03T05:05:40.640Z,12.75
2023-05-03T05:06:40.891Z,12.79
2023-05-03T05:07:40.998Z,12.86
2023-05-03T05:08:41.212Z,12.90
2023-05-03T05:09:41.338Z,12.91
2023-05-03T05:10:41.508Z,12.93
2023-05-03T05:11:41.670Z,12.91
2023-05-03T05:12:41.823Z,12.93
2023-05-03T05:13:42.007Z,12.98
2023-05-03T05:14:42.163Z,13.08
2023-05-03T05:15:42.317Z,13.20
2023-05-03T05:16:42.630Z,13.44
2023-05-03T05:17:42.787Z,13.72
2023-05-03T05:18:42.889Z,14.04
2023-05-03T05:19:43.040Z,14.36
2023-05-03T05:20:43.227Z,14.63
2023-05-03T05:21:43.388Z,14.97
2023-05-03T05:22:43.566Z,15.33
2023-05-03T05:23:43.828Z,15.72
2023-05-03T05:24:43.929Z,16.09
2023-05-03T05:25:44.067Z,16.47
2023-05-03T05:26:44.338Z,16.78
2023-05-03T05:27:44.432Z,17.09
2023-05-03T05:28:44.620Z,17.36
2023-05-03T05:29:44.797Z,17.67
2023-05-03T05:30:44.973Z,17.95
2023-05-03T05:31:45.191Z,18.22
2023-05-03T05:32:45.344Z,18.45
2023-05-03T05:33:45.596Z,18.70
2023-05-03T05:34:45.948Z,18.93
2023-05-03T05:35:45.846Z,19.21
2023-05-03T05:36:46.079Z,19.40
2023-05-03T05:37:46.179Z,19.69
2023-05-03T05:38:46.418Z,19.91
2023-05-03T05:39:46.547Z,20.16
2023-05-03T05:40:46.704Z,20.41
2023-05-03T05:41:46.887Z,20.66
2023-05-03T05:42:47.082Z,20.87
2023-05-03T05:43:47.284Z,21.06
2023-05-03T05:44:47.423Z,21.20
2023-05-03T05:45:47.591Z,21.32
2023-05-03T05:46:47.858Z,21.43
2023-05-03T05:47:47.976Z,21.50
2023-05-03T05:48:48.146Z,21.64
2023-05-03T05:49:48.367Z,21.83
2023-05-03T05:50:48.453Z,22.00
2023-05-03T05:51:48.691Z,22.13
2023-05-03T05:52:48.871Z,22.29
2023-05-03T05:53:49.016Z,22.44
2023-05-03T05:54:49.179Z,22.57
2023-05-03T05:55:49.370Z,22.72
2023-05-03T05:56:49.534Z,22.88
2023-05-03T05:57:49.741Z,23.06
2023-05-03T05:58:49.931Z,23.27
2023-05-03T05:59:50.106Z,23.47
2023-05-03T06:00:50.243Z,23.63
2023-05-03T06:01:50.484Z,23.80
2023-05-03T06:02:50.733Z,23.87
2023-05-03T06:03:50.849Z,23.96
2023-05-03T06:04:50.980Z,24.05
2023-05-03T06:05:51.199Z,24.14
2023-05-03T06:06:51.376Z,24.23
2023-05-03T06:07:51.488Z,24.36
2023-05-03T06:08:51.693Z,24.53
2023-05-03T06:09:51.858Z,24.66
2023-05-03T06:10:51.996Z,24.77
2023-05-03T06:11:52.236Z,24.81
2023-05-03T06:12:52.360Z,24.95
2023-05-03T06:13:52.559Z,24.98
2023-05-03T06:15:01.951Z,24.99
2023-05-03T06:15:53.902Z,25.03
2023-05-03T06:16:53.151Z,25.04
2023-05-03T06:17:53.268Z,25.06
2023-05-03T06:18:53.398Z,25.17
2023-05-03T06:19:53.583Z,25.31
2023-05-03T06:20:53.743Z,25.32
2023-05-03T06:21:53.917Z,25.40
2023-05-03T06:22:54.135Z,25.46
2023-05-03T06:23:54.259Z,25.18
2023-05-03T06:24:54.409Z,25.17
2023-05-03T06:25:54.679Z,25.16
2023-05-03T06:26:54.771Z,25.18
2023-05-03T06:27:54.929Z,25.26
2023-05-03T06:28:55.141Z,25.31
2023-05-03T06:29:55.241Z,25.40
2023-05-03T06:30:55.431Z,25.53
2023-05-03T06:31:55.573Z,25.68
2023-05-03T06:32:55.810Z,25.88
2023-05-03T06:33:55.956Z,25.99
2023-05-03T06:34:56.090Z,26.15
2023-05-03T06:35:56.293Z,26.31
2023-05-03T06:36:56.440Z,26.47
2023-05-03T06:37:56.630Z,26.63
2023-05-03T06:38:56.836Z,26.83
2023-05-03T06:39:56.999Z,26.99
2023-05-03T06:40:57.153Z,27.05
2023-05-03T06:41:57.343Z,27.12
2023-05-03T06:42:57.517Z,27.08
2023-05-03T06:43:57.682Z,27.11
2023-05-03T06:44:57.848Z,27.15
2023-05-03T06:45:58.093Z,27.11
2023-05-03T06:46:58.249Z,27.15
2023-05-03T06:47:58.465Z,27.25
2023-05-03T06:48:58.642Z,27.29
2023-05-03T06:49:58.714Z,27.33
2023-05-03T06:50:58.884Z,27.33
2023-05-03T06:51:59.049Z,27.33
2023-05-03T06:52:59.234Z,27.33
2023-05-03T06:53:59.431Z,27.39
2023-05-03T06:54:59.638Z,27.42
2023-05-03T06:55:59.708Z,27.58
2023-05-03T06:56:59.900Z,27.73
2023-05-03T06:58:00.124Z,27.87
2023-05-03T06:59:00.245Z,27.90
2023-05-03T07:00:00.603Z,28.01
2023-05-03T07:01:00.648Z,28.05
2023-05-03T07:02:00.953Z,28.05
2023-05-03T07:03:00.966Z,28.08
2023-05-03T07:04:01.238Z,28.17
2023-05-03T07:05:01.283Z,28.19
2023-05-03T07:06:01.550Z,28.11
2023-05-03T07:07:01.694Z,28.10
2023-05-03T07:08:01.841Z,28.07
2023-05-03T07:09:02.009Z,28.08
2023-05-03T07:10:02.533Z,28.07
2023-05-03T07:11:02.354Z,28.12
2023-05-03T07:12:02.598Z,28.22
2023-05-03T07:13:02.701Z,28.15
2023-05-03T07:14:02.913Z,28.10
2023-05-03T07:15:03.092Z,28.01
2023-05-03T07:16:03.806Z,28.04
2023-05-03T07:17:03.496Z,28.02
2023-05-03T07:18:03.745Z,28.11
2023-05-03T07:19:03.798Z,28.12
2023-05-03T07:20:04.105Z,28.04
2023-05-03T07:21:04.461Z,28.07
2023-05-03T07:22:04.303Z,28.05
2023-05-03T07:23:04.500Z,28.08
2023-05-03T07:24:04.697Z,28.05
2023-05-03T07:25:04.938Z,28.08
2023-05-03T07:26:05.031Z,27.87
2023-05-03T07:27:05.189Z,27.71
2023-05-03T07:28:05.387Z,27.78
2023-05-03T07:29:05.544Z,27.90
2023-05-03T07:30:06.060Z,27.87
2023-05-03T07:31:05.967Z,27.98
2023-05-03T07:32:06.092Z,28.10
2023-05-03T07:33:06.425Z,28.30
2023-05-03T07:34:06.427Z,28.33
2023-05-03T07:35:06.616Z,28.38
2023-05-03T07:36:06.786Z,28.32
2023-05-03T07:37:06.952Z,28.14
2023-05-03T07:38:07.184Z,28.11
2023-05-03T07:39:07.298Z,28.14
2023-05-03T07:40:07.466Z,28.17
2023-05-03T07:41:07.676Z,28.04
2023-05-03T07:42:07.789Z,28.00
2023-05-03T07:43:07.988Z,28.08
2023-05-03T07:44:08.234Z,28.15
2023-05-03T07:45:08.346Z,28.26
2023-05-03T07:46:08.546Z,28.26
2023-05-03T07:47:08.732Z,28.25
2023-05-03T07:48:08.904Z,28.35
2023-05-03T07:49:09.039Z,28.33
2023-05-03T07:50:09.193Z,28.20
2023-05-03T07:51:09.343Z,28.41
2023-05-03T07:52:09.553Z,28.41
2023-05-03T07:53:10.069Z,28.47
2023-05-03T07:54:09.894Z,28.60
2023-05-03T07:55:10.070Z,28.82
2023-05-03T07:56:10.224Z,29.10
2023-05-03T07:57:10.402Z,29.32
2023-05-03T07:58:10.619Z,29.56
2023-05-03T07:59:10.860Z,29.34
2023-05-03T08:00:11.209Z,28.67
2023-05-03T08:01:11.134Z,27.87
2023-05-03T08:02:11.441Z,27.08
2023-05-03T08:03:11.604Z,26.41
2023-05-03T08:04:12.007Z,25.78
2023-05-03T08:05:11.964Z,25.29
2023-05-03T08:06:12.015Z,25.01
2023-05-03T08:07:12.195Z,24.84
2023-05-03T08:08:12.372Z,24.57
2023-05-03T08:09:12.812Z,24.35
2023-05-03T08:10:12.753Z,24.10
2023-05-03T08:11:12.924Z,23.83
2023-05-03T08:12:13.197Z,23.96
2023-05-03T08:13:13.262Z,24.06
2023-05-03T08:14:13.428Z,23.91
2023-05-03T08:15:13.700Z,23.69
2023-05-03T08:16:13.871Z,23.39
2023-05-03T08:17:14.012Z,23.06
2023-05-03T08:18:14.170Z,22.80
2023-05-03T08:19:14.333Z,22.53
2023-05-03T08:20:14.515Z,22.85
2023-05-03T08:21:14.663Z,23.65
2023-05-03T08:22:14.917Z,24.57
2023-05-03T08:23:15.983Z,25.43
2023-05-03T08:24:16.155Z,26.15
2023-05-03T08:25:15.341Z,26.78
2023-05-03T08:26:15.508Z,27.22
2023-05-03T08:27:15.750Z,27.73
2023-05-03T08:28:15.913Z,28.25
2023-05-03T08:29:16.039Z,28.74
2023-05-03T08:30:16.252Z,29.20
2023-05-03T08:31:16.459Z,29.53
2023-05-03T08:32:16.588Z,29.78
2023-05-03T08:33:16.792Z,29.94
2023-05-03T08:34:17.042Z,30.15
2023-05-03T08:35:17.120Z,30.27
2023-05-03T08:36:17.307Z,30.32
2023-05-03T08:37:17.484Z,30.62
2023-05-03T08:38:17.673Z,30.94
2023-05-03T08:39:17.824Z,30.92
2023-05-03T08:40:17.999Z,30.69
2023-05-03T08:41:18.140Z,30.32
2023-05-03T08:42:18.413Z,30.32
2023-05-03T08:43:18.524Z,30.39
2023-05-03T08:44:18.688Z,30.78
2023-05-03T08:45:18.843Z,31.17
2023-05-03T08:46:19.117Z,31.58
2023-05-03T08:47:19.226Z,32.08
2023-05-03T08:48:19.404Z,32.51
2023-05-03T08:49:19.600Z,32.93
2023-05-03T08:50:19.741Z,33.32
2023-05-03T08:51:19.978Z,33.62
2023-05-03T08:52:20.122Z,33.76
2023-05-03T08:53:20.271Z,33.87
2023-05-03T08:54:20.438Z,34.16
2023-05-03T08:55:20.594Z,33.98
2023-05-03T08:56:20.794Z,33.67
2023-05-03T08:57:20.979Z,33.09
2023-05-03T08:58:21.201Z,32.46
2023-05-03T08:59:21.335Z,31.43
2023-05-03T09:00:21.611Z,30.35
2023-05-03T09:01:21.709Z,29.53
2023-05-03T09:02:22.009Z,29.16
2023-05-03T09:03:22.038Z,29.47
2023-05-03T09:04:22.160Z,30.03
2023-05-03T09:05:22.378Z,30.68
2023-05-03T09:06:22.598Z,31.22
2023-05-03T09:07:22.677Z,31.65
2023-05-03T09:08:22.850Z,31.92
2023-05-03T09:09:23.040Z,32.09
2023-05-03T09:10:23.182Z,32.29
2023-05-03T09:11:23.371Z,32.46
2023-05-03T09:12:23.618Z,32.52
2023-05-03T09:13:23.736Z,32.73
2023-05-03T09:14:23.916Z,33.00
2023-05-03T09:15:24.136Z,33.23
2023-05-03T09:16:24.304Z,33.45
2023-05-03T09:17:24.520Z,33.55
2023-05-03T09:18:24.726Z,33.32
2023-05-03T09:19:24.821Z,33.42
2023-05-03T09:20:25.000Z,33.49
2023-05-03T09:21:25.198Z,32.83
2023-05-03T09:22:25.367Z,31.71
2023-05-03T09:23:25.500Z,30.68
2023-05-03T09:24:25.688Z,29.76
2023-05-03T09:25:25.892Z,28.94
2023-05-03T09:26:26.028Z,28.19
2023-05-03T09:27:26.262Z,28.12
2023-05-03T09:28:26.363Z,28.29
2023-05-03T09:29:26.547Z,28.78
2023-05-03T09:30:26.709Z,29.31
2023-05-03T09:31:26.957Z,29.60
2023-05-03T09:32:27.091Z,30.24
2023-05-03T09:33:27.329Z,30.75
2023-05-03T09:34:27.435Z,31.44
2023-05-03T09:35:27.602Z,32.07
2023-05-03T09:36:27.897Z,32.67
2023-05-03T09:37:27.926Z,33.09
2023-05-03T09:38:28.109Z,33.46
2023-05-03T09:39:28.339Z,33.55
2023-05-03T09:40:28.450Z,33.58
2023-05-03T09:41:28.645Z,33.58
2023-05-03T09:42:28.875Z,33.65
2023-05-03T09:43:28.983Z,33.77
2023-05-03T09:44:29.143Z,33.89
2023-05-03T09:45:29.346Z,33.94
2023-05-03T09:46:29.569Z,34.17
2023-05-03T09:47:32.091Z,34.48
2023-05-03T09:48:29.838Z,34.88
2023-05-03T09:49:30.046Z,35.30
2023-05-03T09:50:30.162Z,35.64
2023-05-03T09:51:30.382Z,35.98
2023-05-03T09:52:30.589Z,36.16
2023-05-03T09:53:30.726Z,36.28
2023-05-03T09:54:30.925Z,36.36
2023-05-03T09:55:31.192Z,36.58
2023-05-03T09:56:31.263Z,36.76
2023-05-03T09:57:31.433Z,36.79
2023-05-03T09:58:31.631Z,36.61
2023-05-03T09:59:31.808Z,36.51
2023-05-03T10:00:32.013Z,36.33
2023-05-03T10:01:32.184Z,36.25
2023-05-03T10:02:32.401Z,35.78
2023-05-03T10:03:32.564Z,35.56
2023-05-03T10:04:32.722Z,35.41
2023-05-03T10:05:32.884Z,35.05
2023-05-03T10:06:33.116Z,34.57
2023-05-03T10:07:33.218Z,33.99
2023-05-03T10:08:33.407Z,33.45
2023-05-03T10:09:33.565Z,32.86
2023-05-03T10:10:33.713Z,32.31
2023-05-03T10:11:33.902Z,31.84
2023-05-03T10:12:34.097Z,31.02
2023-05-03T10:13:34.266Z,30.05
2023-05-03T10:14:34.402Z,29.02
2023-05-03T10:15:34.631Z,28.05
2023-05-03T10:16:34.766Z,27.21
2023-05-03T10:17:46.289Z,26.43
2023-05-03T10:18:36.176Z,25.81
2023-05-03T10:19:35.282Z,25.29
2023-05-03T10:20:35.482Z,24.76
2023-05-03T10:21:35.636Z,24.36
2023-05-03T10:22:35.848Z,23.95
2023-05-03T10:23:35.997Z,23.43
2023-05-03T10:24:36.153Z,22.99
2023-05-03T10:25:36.342Z,22.66
2023-05-03T10:26:36.651Z,22.33
2023-05-03T10:27:36.677Z,22.06
2023-05-03T10:28:36.827Z,21.76
2023-05-03T10:29:37.017Z,21.50
2023-05-03T10:30:37.209Z,21.24
2023-05-03T10:31:37.452Z,21.05
2023-05-03T10:32:37.574Z,20.85
2023-05-03T10:33:37.717Z,20.72
2023-05-03T10:34:37.891Z,20.59
2023-05-03T10:35:38.049Z,20.44
2023-05-03T10:36:48.778Z,20.26
2023-05-03T10:37:39.399Z,20.14
2023-05-03T10:38:38.596Z,20.07
2023-05-03T10:39:38.792Z,20.00
2023-05-03T10:40:38.947Z,19.95
2023-05-03T10:41:39.099Z,19.99
2023-05-03T10:42:39.292Z,20.00
2023-05-03T10:43:39.442Z,19.99
2023-05-03T10:44:39.628Z,19.96
2023-05-03T10:45:39.830Z,19.89
2023-05-03T10:46:40.037Z,19.79
2023-05-03T10:47:40.205Z,19.67
2023-05-03T10:48:40.265Z,19.58
2023-05-03T10:49:40.484Z,19.56
2023-05-03T10:50:40.671Z,19.51
2023-05-03T10:51:40.805Z,19.48
2023-05-03T10:52:41.029Z,19.47
2023-05-03T10:53:41.315Z,19.41
2023-05-03T10:54:41.383Z,19.37
2023-05-03T10:55:41.545Z,19.31
2023-05-03T10:56:41.764Z,19.30
2023-05-03T10:57:41.873Z,19.27
2023-05-03T10:58:42.093Z,19.22
2023-05-03T10:59:42.260Z,19.19
2023-05-03T11:00:42.377Z,19.09
2023-05-03T11:01:42.669Z,18.98
2023-05-03T11:02:42.822Z,18.93
2023-05-03T11:03:42.947Z,18.92
2023-05-03T11:04:43.318Z,18.93
2023-05-03T11:05:43.310Z,18.90
2023-05-03T11:06:43.533Z,18.96
2023-05-03T11:07:43.734Z,18.96
2023-05-03T11:08:43.859Z,18.92
2023-05-03T11:09:45.356Z,18.88
2023-05-03T11:10:44.234Z,18.77
2023-05-03T11:11:44.361Z,18.74
2023-05-03T11:12:44.569Z,18.73
2023-05-03T11:13:44.809Z,18.73
2023-05-03T11:14:44.895Z,18.75
2023-05-03T11:15:47.003Z,18.78
2023-05-03T11:16:45.370Z,18.83
2023-05-03T11:17:45.437Z,18.86
2023-05-03T11:18:45.599Z,18.96
2023-05-03T11:19:45.754Z,19.08
2023-05-03T11:20:45.949Z,19.21
2023-05-03T11:21:47.018Z,19.27
2023-05-03T11:22:46.305Z,19.31
2023-05-03T11:23:46.544Z,19.36
2023-05-03T11:24:46.679Z,19.39
2023-05-03T11:25:46.849Z,19.36
2023-05-03T11:26:46.965Z,19.33
2023-05-03T11:27:47.895Z,19.27
2023-05-03T11:28:47.282Z,19.24
2023-05-03T11:29:47.456Z,19.15
2023-05-03T11:30:47.711Z,19.12
2023-05-03T11:31:47.924Z,19.07
2023-05-03T11:32:48.023Z,19.02
2023-05-03T11:33:48.328Z,18.99
2023-05-03T11:34:48.355Z,19.00
2023-05-03T11:35:48.558Z,18.98
2023-05-03T11:36:48.747Z,18.98
2023-05-03T11:37:48.860Z,18.95
2023-05-03T11:38:49.005Z,18.93
2023-05-03T11:39:49.162Z,18.88
2023-05-03T11:40:49.312Z,18.83
2023-05-03T11:41:49.528Z,18.83
2023-05-03T11:42:49.724Z,18.74
2023-05-03T11:44:00.757Z,18.74
2023-05-03T11:44:51.037Z,18.77
2023-05-03T11:45:50.210Z,18.78
2023-05-03T11:46:50.382Z,18.81
2023-05-03T11:47:50.561Z,18.83
2023-05-03T11:48:50.697Z,18.88
2023-05-03T11:49:50.960Z,18.90
2023-05-03T11:50:51.037Z,18.92
2023-05-03T11:51:54.366Z,18.88
2023-05-03T11:52:51.529Z,18.83
2023-05-03T11:53:51.492Z,18.81
2023-05-03T11:54:51.671Z,18.80
2023-05-03T11:55:51.917Z,18.80
2023-05-03T11:56:52.912Z,18.77
2023-05-03T11:57:52.247Z,18.75
2023-05-03T11:58:52.398Z,18.75
2023-05-03T11:59:52.611Z,18.78
2023-05-03T12:00:52.758Z,18.84
2023-05-03T12:01:52.914Z,18.88
2023-05-03T12:02:53.229Z,18.93
2023-05-03T12:03:53.402Z,18.98
2023-05-03T12:04:53.799Z,18.99
2023-05-03T12:05:54.501Z,19.02
2023-05-03T12:06:54.867Z,19.07
2023-05-03T12:07:54.556Z,19.07
2023-05-03T12:08:54.852Z,19.12
2023-05-03T12:10:06.823Z,19.09
2023-05-03T12:10:57.874Z,19.11
2023-05-03T12:11:55.651Z,19.12
2023-05-03T12:12:56.894Z,19.14
2023-05-03T12:13:55.054Z,19.15
2023-05-03T12:14:55.247Z,19.16
2023-05-03T12:16:10.189Z,19.18
2023-05-03T12:16:56.979Z,19.18
2023-05-03T12:17:56.020Z,19.21
2023-05-03T12:18:56.642Z,19.15
2023-05-03T12:20:18.978Z,19.12
2023-05-03T12:21:30.333Z,19.09
2023-05-03T12:22:18.001Z,19.04
2023-05-03T12:22:58.904Z,19.00
2023-05-03T12:23:57.328Z,18.98
2023-05-03T12:24:58.483Z,18.95
2023-05-03T12:25:57.426Z,18.93
2023-05-03T12:26:57.508Z,18.90
2023-05-03T12:28:17.570Z,18.90
2023-05-03T12:28:59.781Z,18.84
2023-05-03T12:29:57.722Z,18.83
2023-05-03T12:30:57.994Z,18.81
2023-05-03T12:31:58.073Z,18.81
2023-05-03T12:32:58.726Z,18.78
2023-05-03T12:35:01.924Z,18.75
2023-05-03T12:35:59.387Z,18.77
2023-05-03T12:36:59.285Z,18.83
2023-05-03T12:38:02.323Z,18.86
2023-05-03T12:39:01.664Z,18.86
2023-05-03T12:40:21.770Z,18.89
2023-05-03T12:41:00.647Z,18.89
2023-05-03T12:42:59.940Z,18.89
2023-05-03T12:44:00.648Z,18.93
2023-05-03T12:45:04.003Z,18.92
2023-05-03T12:46:29.185Z,18.81
2023-05-03T12:47:01.860Z,18.83
2023-05-03T12:48:00.962Z,18.81
2023-05-03T12:49:01.123Z,18.88
2023-05-03T12:50:03.673Z,18.90
2023-05-03T12:51:18.529Z,18.90
2023-05-03T12:52:34.719Z,18.93
2023-05-03T12:53:03.155Z,18.96
2023-05-03T12:54:02.516Z,18.98
2023-05-03T12:55:03.897Z,19.04
2023-05-03T12:56:05.219Z,19.02
2023-05-03T12:57:04.360Z,19.04
2023-05-03T12:59:31.762Z,19.08
2023-05-03T13:00:04.620Z,19.08
2023-05-03T13:01:47.337Z,19.08
2023-05-03T13:03:16.236Z,19.07
2023-05-03T13:06:11.125Z,18.98
2023-05-03T13:07:12.156Z,18.96